createdAt,value
2019-02-06T00:01:42.088Z,21.37
2019-02-06T00:04:09.669Z,28.30
2019-02-06T00:06:37.253Z,45.20
2019-02-06T00:09:05.438Z,50.77
2019-02-06T00:11:35.108Z,30.27
2019-02-06T00:14:01.394Z,39.73
2019-02-06T00:16:28.994Z,38.40
2019-02-06T00:18:56.567Z,29.80
2019-02-06T00:21:24.172Z,30.17
2019-02-06T00:23:51.917Z,29.00
2019-02-06T00:26:19.497Z,29.42
2019-02-06T00:28:47.081Z,26.50
2019-02-06T00:31:15.939Z,23.27
2019-02-06T00:33:43.522Z,21.57
2019-02-06T00:36:11.874Z,26.63
2019-02-06T00:38:39.485Z,26.40
2019-02-06T00:41:07.077Z,22.47
2019-02-06T00:43:34.650Z,22.63
2019-02-06T00:46:02.261Z,21.67
2019-02-06T00:48:30.614Z,24.70
2019-02-06T00:50:58.200Z,23.73
2019-02-06T00:53:25.867Z,25.88
2019-02-06T00:55:54.221Z,23.67
2019-02-06T00:58:23.317Z,26.23
2019-02-06T01:00:50.941Z,30.90
2019-02-06T01:03:18.528Z,26.17
2019-02-06T01:05:46.112Z,29.47
2019-02-06T01:08:13.803Z,39.23
2019-02-06T01:10:41.389Z,33.43
2019-02-06T01:13:08.972Z,29.33
2019-02-06T01:15:36.617Z,26.30
2019-02-06T01:18:04.210Z,25.30
2019-02-06T01:20:31.798Z,32.27
2019-02-06T01:23:00.190Z,30.20
2019-02-06T01:25:29.129Z,27.55
2019-02-06T01:27:56.715Z,25.83
2019-02-06T01:30:26.749Z,25.50
2019-02-06T01:32:55.114Z,20.83
2019-02-06T01:35:22.733Z,19.53
2019-02-06T01:37:50.343Z,22.67
2019-02-06T01:40:17.922Z,24.53
2019-02-06T01:42:46.283Z,21.27
2019-02-06T01:45:13.968Z,26.58
2019-02-06T01:47:41.515Z,22.10
2019-02-06T01:50:09.880Z,20.00
2019-02-06T01:52:37.501Z,20.37
2019-02-06T01:55:05.091Z,20.33
2019-02-06T01:57:32.955Z,21.70
2019-02-06T02:00:12.633Z,20.20
2019-02-06T02:02:40.986Z,17.13
2019-02-06T02:05:08.575Z,17.87
2019-02-06T02:07:36.989Z,21.17
2019-02-06T02:10:05.305Z,22.17
2019-02-06T02:12:32.906Z,22.50
2019-02-06T02:15:01.289Z,21.47
2019-02-06T02:17:29.639Z,23.47
2019-02-06T02:19:57.216Z,19.73
2019-02-06T02:22:25.607Z,22.37
2019-02-06T02:24:53.962Z,18.10
2019-02-06T02:27:21.541Z,17.40
2019-02-06T02:29:49.933Z,23.07
2019-02-06T02:32:17.522Z,23.23
2019-02-06T02:34:45.109Z,24.17
2019-02-06T02:37:12.738Z,18.50
2019-02-06T02:39:40.320Z,19.40
2019-02-06T02:42:07.925Z,21.77
2019-02-06T02:44:36.318Z,17.73
2019-02-06T02:47:04.667Z,27.33
2019-02-06T02:49:32.253Z,26.83
2019-02-06T02:52:00.646Z,28.67
2019-02-06T02:54:28.236Z,37.70
2019-02-06T02:56:55.821Z,33.00
2019-02-06T02:59:23.440Z,29.80
2019-02-06T03:01:51.025Z,28.87
2019-02-06T03:04:18.609Z,24.83
2019-02-06T03:06:46.568Z,26.77
2019-02-06T03:09:14.171Z,27.35
2019-02-06T03:11:42.009Z,25.57
2019-02-06T03:14:09.639Z,24.63
2019-02-06T03:16:37.235Z,27.20
2019-02-06T03:19:04.825Z,22.23
2019-02-06T03:21:33.226Z,31.87
2019-02-06T03:24:00.816Z,31.02
2019-02-06T03:26:28.401Z,28.77
2019-02-06T03:28:56.046Z,22.57
2019-02-06T03:31:23.617Z,19.97
2019-02-06T03:33:51.202Z,21.37
2019-02-06T03:36:18.826Z,30.23
2019-02-06T03:38:46.423Z,25.73
2019-02-06T03:41:14.009Z,27.70
2019-02-06T03:43:42.391Z,31.20
2019-02-06T03:46:10.740Z,27.63
2019-02-06T03:48:38.326Z,27.70
2019-02-06T03:51:06.763Z,26.90
2019-02-06T03:53:34.338Z,31.10
2019-02-06T03:56:01.924Z,34.07
2019-02-06T03:58:30.306Z,38.07
2019-02-06T04:00:57.927Z,37.47
2019-02-06T04:03:25.481Z,29.77
2019-02-06T04:05:53.114Z,25.27
2019-02-06T04:08:20.703Z,27.63
2019-02-06T04:10:48.285Z,29.53
2019-02-06T04:13:15.952Z,34.93
2019-02-06T04:15:44.117Z,31.37
2019-02-06T04:18:11.709Z,35.97
2019-02-06T04:20:39.362Z,43.70
2019-02-06T04:23:06.909Z,82.32
2019-02-06T04:25:34.508Z,76.77
2019-02-06T04:28:03.173Z,94.83
2019-02-06T04:30:30.784Z,81.12
2019-02-06T04:32:58.360Z,86.70
2019-02-06T04:35:26.363Z,122.77
2019-02-06T04:37:53.948Z,162.07
2019-02-06T04:40:22.307Z,118.03
2019-02-06T04:42:49.932Z,117.78
2019-02-06T04:45:17.524Z,94.27
2019-02-06T04:47:45.108Z,135.27
2019-02-06T04:50:13.890Z,100.07
2019-02-06T04:52:41.446Z,244.93
2019-02-06T04:55:11.836Z,115.90
2019-02-06T04:57:39.473Z,132.20
2019-02-06T05:00:13.411Z,140.60
2019-02-06T05:02:41.001Z,80.73
2019-02-06T05:05:08.623Z,229.67
2019-02-06T05:07:36.217Z,209.93
2019-02-06T05:10:03.813Z,172.20
2019-02-06T05:12:32.210Z,115.70
2019-02-06T05:14:59.821Z,112.10
2019-02-06T05:17:27.389Z,123.60
2019-02-06T05:19:55.017Z,98.23
2019-02-06T05:22:22.610Z,103.40
2019-02-06T05:24:50.202Z,112.83
2019-02-06T05:27:18.587Z,119.07
2019-02-06T05:29:46.937Z,81.32
2019-02-06T05:32:14.523Z,92.10
2019-02-06T05:34:42.909Z,129.33
2019-02-06T05:37:10.499Z,108.13
2019-02-06T05:39:38.093Z,55.67
2019-02-06T05:42:05.746Z,89.30
2019-02-06T05:44:33.332Z,92.67
2019-02-06T05:47:00.958Z,55.70
2019-02-06T05:49:28.561Z,63.70
2019-02-06T05:51:56.163Z,99.15
2019-02-06T05:54:23.760Z,145.32
2019-02-06T05:56:51.380Z,178.07
2019-02-06T05:59:18.967Z,92.83
2019-02-06T06:01:46.552Z,72.10
2019-02-06T06:04:14.238Z,90.73
2019-02-06T06:06:41.830Z,80.10
2019-02-06T06:09:09.412Z,65.73
2019-02-06T06:11:37.026Z,73.53
2019-02-06T06:14:05.065Z,102.10
2019-02-06T06:16:32.671Z,162.93
2019-02-06T06:19:01.076Z,74.50
2019-02-06T06:21:28.671Z,129.07
2019-02-06T06:23:56.745Z,87.97
2019-02-06T06:26:24.367Z,51.33
2019-02-06T06:28:51.978Z,91.93
2019-02-06T06:31:19.563Z,127.17
2019-02-06T06:33:47.280Z,84.90
2019-02-06T06:36:14.910Z,44.77
2019-02-06T06:38:43.267Z,48.93
2019-02-06T06:41:10.883Z,83.07
2019-02-06T06:43:38.484Z,49.10
2019-02-06T06:46:06.056Z,50.47
2019-02-06T06:48:33.719Z,37.07
2019-02-06T06:51:01.323Z,55.63
2019-02-06T06:53:28.924Z,73.33
2019-02-06T06:55:56.572Z,61.47
2019-02-06T06:58:24.131Z,48.40
2019-02-06T07:00:51.710Z,34.73
2019-02-06T07:03:19.329Z,21.57
2019-02-06T07:05:46.918Z,34.40
2019-02-06T07:08:14.520Z,28.20
2019-02-06T07:10:42.981Z,23.57
2019-02-06T07:13:10.570Z,26.80
2019-02-06T07:15:38.159Z,38.97
2019-02-06T07:18:05.779Z,27.73
2019-02-06T07:20:33.368Z,37.70
2019-02-06T07:23:00.955Z,59.90
2019-02-06T07:25:28.863Z,43.60
2019-02-06T07:27:56.446Z,23.83
2019-02-06T07:30:27.720Z,24.23
2019-02-06T07:32:55.340Z,27.03
2019-02-06T07:35:22.922Z,24.97
2019-02-06T07:37:51.286Z,21.37
2019-02-06T07:40:18.899Z,25.70
2019-02-06T07:42:46.489Z,32.57
2019-02-06T07:45:14.073Z,37.83
2019-02-06T07:47:41.751Z,46.03
2019-02-06T07:50:11.803Z,43.85
2019-02-06T07:52:39.386Z,43.25
2019-02-06T07:55:07.027Z,29.33
2019-02-06T07:57:34.623Z,30.27
2019-02-06T08:00:02.214Z,31.53
2019-02-06T08:02:30.654Z,30.30
2019-02-06T08:04:58.247Z,29.30
2019-02-06T08:07:25.834Z,26.60
2019-02-06T08:09:53.868Z,29.23
2019-02-06T08:12:21.450Z,31.30
2019-02-06T08:14:49.819Z,37.73
2019-02-06T08:17:17.896Z,38.70
2019-02-06T08:19:46.248Z,38.03
2019-02-06T08:22:14.933Z,33.20
2019-02-06T08:24:43.431Z,32.92
2019-02-06T08:27:11.025Z,27.47
2019-02-06T08:29:38.607Z,27.20
2019-02-06T08:32:06.604Z,26.17
2019-02-06T08:34:34.207Z,32.10
2019-02-06T08:37:01.796Z,29.47
2019-02-06T08:39:29.452Z,30.77
2019-02-06T08:41:57.039Z,29.47
2019-02-06T08:44:24.976Z,24.93
2019-02-06T08:46:53.768Z,28.10
2019-02-06T08:49:22.131Z,30.37
2019-02-06T08:51:50.479Z,27.63
2019-02-06T08:54:20.303Z,26.40
2019-02-06T08:56:45.702Z,26.97
2019-02-06T08:59:13.283Z,32.87
2019-02-06T09:01:41.319Z,31.60
2019-02-06T09:04:08.906Z,31.90
2019-02-06T09:06:36.492Z,33.07
2019-02-06T09:09:04.884Z,28.90
2019-02-06T09:11:33.234Z,28.03
2019-02-06T09:14:00.815Z,26.90
2019-02-06T09:16:28.449Z,28.50
2019-02-06T09:18:56.025Z,27.00
2019-02-06T09:21:23.615Z,30.47
2019-02-06T09:23:52.041Z,34.40
2019-02-06T09:26:19.624Z,31.90
2019-02-06T09:28:47.219Z,30.87
2019-02-06T09:31:15.651Z,35.50
2019-02-06T09:33:43.208Z,35.03
2019-02-06T09:36:10.787Z,36.43
2019-02-06T09:38:38.421Z,30.10
2019-02-06T09:41:06.001Z,31.87
2019-02-06T09:43:33.587Z,33.73
2019-02-06T09:46:01.223Z,32.77
2019-02-06T09:48:28.820Z,32.17
2019-02-06T09:50:57.188Z,43.30
2019-02-06T09:53:24.822Z,36.80
2019-02-06T09:55:53.368Z,38.50
2019-02-06T09:58:19.984Z,39.57
2019-02-06T10:00:48.394Z,41.17
2019-02-06T10:03:15.976Z,40.40
2019-02-06T10:05:43.555Z,40.73
2019-02-06T10:08:11.182Z,41.90
2019-02-06T10:10:38.773Z,36.33
2019-02-06T10:13:06.354Z,41.03
2019-02-06T10:15:34.731Z,36.53
2019-02-06T10:18:02.300Z,35.30
2019-02-06T10:20:29.890Z,41.43
2019-02-06T10:22:58.310Z,41.07
2019-02-06T10:25:25.889Z,37.30
2019-02-06T10:27:53.505Z,37.17
2019-02-06T10:30:23.963Z,39.50
2019-02-06T10:32:51.520Z,41.27
2019-02-06T10:35:19.103Z,36.33
2019-02-06T10:37:46.727Z,41.07
2019-02-06T10:40:14.311Z,39.80
2019-02-06T10:42:41.891Z,40.93
2019-02-06T10:45:12.615Z,35.57
2019-02-06T10:47:40.202Z,40.20
2019-02-06T10:50:07.797Z,42.17
2019-02-06T10:52:36.192Z,37.87
2019-02-06T10:55:03.772Z,40.30
2019-02-06T10:57:31.353Z,33.93
2019-02-06T10:59:58.975Z,36.10
2019-02-06T11:02:26.551Z,33.73
2019-02-06T11:04:54.136Z,32.37
2019-02-06T11:07:21.758Z,33.67
2019-02-06T11:09:49.352Z,33.60
2019-02-06T11:12:16.939Z,32.17
2019-02-06T11:14:45.124Z,28.70
2019-02-06T11:17:12.708Z,28.95
2019-02-06T11:19:43.022Z,26.70
2019-02-06T11:22:08.404Z,26.90
2019-02-06T11:24:36.987Z,25.13
2019-02-06T11:27:04.567Z,26.67
2019-02-06T11:29:32.626Z,27.33
2019-02-06T11:32:00.199Z,25.73
2019-02-06T11:34:27.788Z,22.77
2019-02-06T11:36:55.417Z,20.67
2019-02-06T11:39:23.012Z,21.27
2019-02-06T11:41:51.362Z,21.90
2019-02-06T11:44:19.739Z,18.77
2019-02-06T11:46:47.317Z,23.05
2019-02-06T11:49:15.667Z,23.75
2019-02-06T11:51:43.828Z,22.07
2019-02-06T11:54:11.698Z,19.93
2019-02-06T11:56:39.283Z,17.83
2019-02-06T11:59:07.447Z,17.47
2019-02-06T12:01:35.032Z,22.02
2019-02-06T12:04:02.606Z,18.13
2019-02-06T12:06:31.002Z,16.93
2019-02-06T12:08:58.581Z,16.03
2019-02-06T12:11:26.150Z,16.13
2019-02-06T12:13:54.047Z,17.60
2019-02-06T12:16:21.793Z,17.07
2019-02-06T12:18:49.210Z,17.97
2019-02-06T12:21:18.166Z,16.70
2019-02-06T12:23:45.039Z,13.07
2019-02-06T12:26:13.387Z,13.43
2019-02-06T12:28:41.074Z,11.67
2019-02-06T12:31:09.419Z,13.67
2019-02-06T12:33:37.003Z,11.53
2019-02-06T12:36:04.628Z,13.57
2019-02-06T12:38:32.195Z,14.07
2019-02-06T12:40:59.774Z,11.93
2019-02-06T12:43:27.398Z,11.33
2019-02-06T12:45:54.974Z,12.77
2019-02-06T12:48:22.548Z,11.10
2019-02-06T12:50:50.201Z,11.37
2019-02-06T12:53:17.777Z,10.33
2019-02-06T12:55:45.351Z,10.83
2019-02-06T12:58:13.019Z,10.63
2019-02-06T13:00:43.475Z,11.13
2019-02-06T13:03:11.839Z,11.77
2019-02-06T13:05:40.129Z,10.30
2019-02-06T13:08:08.479Z,10.13
2019-02-06T13:10:36.059Z,10.97
2019-02-06T13:13:04.473Z,9.33
2019-02-06T13:15:32.798Z,9.73
2019-02-06T13:18:00.367Z,9.27
2019-02-06T13:20:28.043Z,10.82
2019-02-06T13:22:55.978Z,10.90
2019-02-06T13:25:23.550Z,9.90
2019-02-06T13:27:51.169Z,9.03
2019-02-06T13:30:18.751Z,10.60
2019-02-06T13:32:46.323Z,12.03
2019-02-06T13:35:14.474Z,10.10
2019-02-06T13:37:42.050Z,10.93
2019-02-06T13:40:09.626Z,15.33
2019-02-06T13:42:37.258Z,10.27
2019-02-06T13:45:07.546Z,9.07
2019-02-06T13:47:35.885Z,12.53
2019-02-06T13:50:04.086Z,10.33
2019-02-06T13:52:31.667Z,11.27
2019-02-06T13:55:00.012Z,13.17
2019-02-06T13:57:33.804Z,10.37
2019-02-06T13:59:55.667Z,10.00
2019-02-06T14:02:23.251Z,14.07
2019-02-06T14:04:51.637Z,11.57
2019-02-06T14:07:19.978Z,10.57
2019-02-06T14:09:47.555Z,10.37
2019-02-06T14:12:15.223Z,17.02
2019-02-06T14:14:42.800Z,12.97
2019-02-06T14:17:11.146Z,14.10
2019-02-06T14:19:38.779Z,15.53
2019-02-06T14:22:06.351Z,14.57
2019-02-06T14:24:33.940Z,13.43
2019-02-06T14:27:01.602Z,11.00
2019-02-06T14:30:06.003Z,13.37
2019-02-06T14:32:54.472Z,16.33
2019-02-06T14:35:27.915Z,14.63
2019-02-06T14:38:16.546Z,14.07
2019-02-06T14:40:44.893Z,12.90
2019-02-06T14:43:12.477Z,13.93
2019-02-06T14:45:42.827Z,12.33
2019-02-06T14:48:19.665Z,13.33
2019-02-06T14:50:52.902Z,14.63
2019-02-06T14:53:20.917Z,12.83
2019-02-06T14:56:25.522Z,14.20
2019-02-06T14:59:18.166Z,14.37
2019-02-06T15:01:45.813Z,15.70
2019-02-06T15:04:38.450Z,14.33
2019-02-06T15:07:09.450Z,11.50
2019-02-06T15:09:40.073Z,15.50
2019-02-06T15:12:16.362Z,15.07
2019-02-06T15:14:55.411Z,17.23
2019-02-06T15:17:32.147Z,17.97
2019-02-06T15:20:14.670Z,18.20
2019-02-06T15:23:09.855Z,14.57
2019-02-06T15:25:55.946Z,14.63
2019-02-06T15:28:35.654Z,14.40
2019-02-06T15:31:15.712Z,16.60
2019-02-06T15:33:44.099Z,26.53
2019-02-06T15:36:24.631Z,19.80
2019-02-06T15:39:09.937Z,18.47
2019-02-06T15:41:47.265Z,17.93
2019-02-06T15:44:24.095Z,16.73
2019-02-06T15:46:51.646Z,15.10
2019-02-06T15:49:52.302Z,16.93
2019-02-06T15:52:26.350Z,14.47
2019-02-06T15:54:53.927Z,17.37
2019-02-06T15:57:24.355Z,15.20
2019-02-06T16:00:12.714Z,13.07
2019-02-06T16:02:52.594Z,14.83
2019-02-06T16:05:22.856Z,12.07
2019-02-06T16:07:52.914Z,17.40
2019-02-06T16:10:41.869Z,15.03
2019-02-06T16:13:33.632Z,15.03
2019-02-06T16:16:22.739Z,15.53
2019-02-06T16:18:50.315Z,14.97
2019-02-06T16:21:20.645Z,16.27
2019-02-06T16:23:48.266Z,17.17
2019-02-06T16:26:28.043Z,15.27
2019-02-06T16:28:58.401Z,14.03
2019-02-06T16:31:41.288Z,16.13
2019-02-06T16:34:17.401Z,18.37
2019-02-06T16:37:15.119Z,17.57
2019-02-06T16:39:45.539Z,17.02
2019-02-06T16:42:33.648Z,16.83
2019-02-06T16:45:19.613Z,16.30
2019-02-06T16:47:52.535Z,15.13
2019-02-06T16:50:29.600Z,20.30
2019-02-06T16:53:27.874Z,17.73
2019-02-06T16:56:06.874Z,20.98
2019-02-06T16:58:35.087Z,18.60
2019-02-06T17:01:29.683Z,14.83
2019-02-06T17:03:57.666Z,14.63
2019-02-06T17:06:33.701Z,17.73
2019-02-06T17:09:28.899Z,15.97
2019-02-06T17:12:17.316Z,18.27
2019-02-06T17:14:50.222Z,15.67
2019-02-06T17:17:20.929Z,17.10
2019-02-06T17:19:51.243Z,18.27
2019-02-06T17:22:51.903Z,17.47
2019-02-06T17:25:32.852Z,23.67
2019-02-06T17:28:06.170Z,17.90
2019-02-06T17:30:51.344Z,16.47
2019-02-06T17:33:30.550Z,18.53
2019-02-06T17:36:16.904Z,18.00
2019-02-06T17:39:05.787Z,18.30
2019-02-06T17:41:33.377Z,19.83
2019-02-06T17:44:07.076Z,27.20
2019-02-06T17:46:53.465Z,24.07
2019-02-06T17:49:45.661Z,20.23
2019-02-06T17:52:40.828Z,15.93
2019-02-06T17:55:20.773Z,21.37
2019-02-06T17:57:48.382Z,20.17
2019-02-06T18:00:31.171Z,20.67
2019-02-06T18:02:58.791Z,22.77
2019-02-06T18:05:26.393Z,18.83
2019-02-06T18:07:59.839Z,24.90
2019-02-06T18:10:27.575Z,22.60
2019-02-06T18:12:55.107Z,22.10
2019-02-06T18:15:23.041Z,22.63
2019-02-06T18:18:02.866Z,20.70
2019-02-06T18:20:20.831Z,21.45
2019-02-06T18:22:48.461Z,20.23
2019-02-06T18:25:17.024Z,20.57
2019-02-06T18:27:48.321Z,20.90
2019-02-06T18:30:15.950Z,20.37
2019-02-06T18:32:43.587Z,23.63
2019-02-06T18:35:11.134Z,20.87
2019-02-06T18:37:43.357Z,22.43
2019-02-06T18:40:07.806Z,21.37
2019-02-06T18:42:37.217Z,24.40
2019-02-06T18:45:04.113Z,25.83
2019-02-06T18:47:31.737Z,23.00
2019-02-06T18:50:00.143Z,26.23
2019-02-06T18:52:27.679Z,22.40
2019-02-06T18:54:55.324Z,22.87
2019-02-06T18:57:23.677Z,27.77
2019-02-06T18:59:51.295Z,29.33
2019-02-06T19:02:18.918Z,40.37
2019-02-06T19:04:46.482Z,37.17
2019-02-06T19:07:14.080Z,32.93
2019-02-06T19:09:42.206Z,29.83
2019-02-06T19:12:10.172Z,30.27
2019-02-06T19:14:37.784Z,29.12
2019-02-06T19:17:05.428Z,28.23
2019-02-06T19:19:33.023Z,28.17
2019-02-06T19:22:00.642Z,26.67
2019-02-06T19:24:28.607Z,26.70
2019-02-06T19:26:56.187Z,27.53
2019-02-06T19:29:24.542Z,49.67
2019-02-06T19:31:52.200Z,36.40
2019-02-06T19:34:19.779Z,41.33
2019-02-06T19:36:47.373Z,36.40
2019-02-06T19:39:16.144Z,34.47
2019-02-06T19:41:43.737Z,32.60
2019-02-06T19:44:11.584Z,30.17
2019-02-06T19:46:39.223Z,38.50
2019-02-06T19:49:07.585Z,35.93
2019-02-06T19:51:35.200Z,31.80
2019-02-06T19:54:02.875Z,32.40
2019-02-06T19:56:30.457Z,28.47
2019-02-06T19:58:58.071Z,27.00
2019-02-06T20:01:25.736Z,23.73
2019-02-06T20:03:53.384Z,23.43
2019-02-06T20:06:29.627Z,25.67
2019-02-06T20:08:57.150Z,29.23
2019-02-06T20:11:24.745Z,28.07
2019-02-06T20:13:52.420Z,26.93
2019-02-06T20:16:20.474Z,27.03
2019-02-06T20:18:48.160Z,30.87
2019-02-06T20:21:16.620Z,34.20
2019-02-06T20:23:44.201Z,32.07
2019-02-06T20:26:11.791Z,30.63
2019-02-06T20:28:39.516Z,32.50
2019-02-06T20:31:07.076Z,30.40
2019-02-06T20:33:34.669Z,31.37
2019-02-06T20:36:03.534Z,34.23
2019-02-06T20:38:31.129Z,31.27
2019-02-06T20:40:59.498Z,35.03
2019-02-06T20:43:27.170Z,32.83
2019-02-06T20:45:54.723Z,35.57
2019-02-06T20:48:23.074Z,29.17
2019-02-06T20:50:51.564Z,28.20
2019-02-06T20:53:18.422Z,31.00
2019-02-06T20:55:46.548Z,31.23
2019-02-06T20:58:14.141Z,31.23
2019-02-06T21:00:41.798Z,33.93
2019-02-06T21:03:10.146Z,33.17
2019-02-06T21:05:39.185Z,33.10
2019-02-06T21:08:06.774Z,32.73
2019-02-06T21:10:35.727Z,33.90
2019-02-06T21:13:03.394Z,29.13
2019-02-06T21:15:32.775Z,30.17
2019-02-06T21:17:58.534Z,32.53
2019-02-06T21:20:27.023Z,29.67
2019-02-06T21:22:54.600Z,28.33
2019-02-06T21:25:22.945Z,33.00
2019-02-06T21:27:50.579Z,34.87
2019-02-06T21:30:18.155Z,27.17
2019-02-06T21:32:45.747Z,30.73
2019-02-06T21:35:14.183Z,31.50
2019-02-06T21:37:41.765Z,27.87
2019-02-06T21:40:12.435Z,29.13
2019-02-06T21:42:40.823Z,30.70
2019-02-06T21:45:09.183Z,31.77
2019-02-06T21:47:36.772Z,29.90
2019-02-06T21:50:04.394Z,27.60
2019-02-06T21:52:31.972Z,33.73
2019-02-06T21:55:00.440Z,30.73
2019-02-06T21:57:27.995Z,30.13
2019-02-06T21:59:55.576Z,35.70
2019-02-06T22:02:23.943Z,32.37
2019-02-06T22:04:51.583Z,29.70
2019-02-06T22:07:19.165Z,34.17
2019-02-06T22:09:46.759Z,29.33
2019-02-06T22:12:15.208Z,33.53
2019-02-06T22:14:42.787Z,31.70
2019-02-06T22:17:10.362Z,33.30
2019-02-06T22:19:38.747Z,30.30
2019-02-06T22:22:06.387Z,33.30
2019-02-06T22:24:33.957Z,28.63
2019-02-06T22:27:01.583Z,30.53
2019-02-06T22:29:29.164Z,29.53
2019-02-06T22:31:56.772Z,29.27
2019-02-06T22:34:24.386Z,31.33
2019-02-06T22:36:51.971Z,30.10
2019-02-06T22:39:20.320Z,33.37
2019-02-06T22:41:47.939Z,30.03
2019-02-06T22:44:15.533Z,31.00
2019-02-06T22:46:43.275Z,29.20
2019-02-06T22:49:11.648Z,29.60
2019-02-06T22:51:39.542Z,29.17
2019-02-06T22:54:07.127Z,31.05
2019-02-06T22:56:34.754Z,31.60
2019-02-06T22:59:02.345Z,33.87
2019-02-06T23:01:29.933Z,29.20
2019-02-06T23:03:58.307Z,30.87
2019-02-06T23:06:26.654Z,31.20
2019-02-06T23:08:54.245Z,33.53
2019-02-06T23:11:22.997Z,33.63
2019-02-06T23:13:50.575Z,30.20
2019-02-06T23:16:18.163Z,33.67
2019-02-06T23:18:47.444Z,30.67
2019-02-06T23:21:15.026Z,31.10
2019-02-06T23:23:45.635Z,26.83
2019-02-06T23:26:13.243Z,28.70
2019-02-06T23:28:41.683Z,31.07
2019-02-06T23:31:09.273Z,28.67
2019-02-06T23:33:37.656Z,31.40
2019-02-06T23:36:14.344Z,30.70
2019-02-06T23:38:41.925Z,29.70
2019-02-06T23:41:09.544Z,28.23
2019-02-06T23:43:37.912Z,28.50
2019-02-06T23:46:05.635Z,29.57
2019-02-06T23:48:33.245Z,31.63
2019-02-06T23:51:01.604Z,30.03
2019-02-06T23:53:29.190Z,24.57
2019-02-06T23:55:56.971Z,31.67
2019-02-06T23:58:25.322Z,29.83
